createdAt,value
2023-11-27T00:01:11.281Z,2.40
2023-11-27T00:03:40.647Z,2.40
2023-11-27T00:06:11.317Z,2.30
2023-11-27T00:08:40.109Z,2.40
2023-11-27T00:11:09.125Z,2.40
2023-11-27T00:13:37.676Z,2.30
2023-11-27T00:16:08.853Z,2.40
2023-11-27T00:18:39.504Z,2.30
2023-11-27T00:21:08.564Z,2.30
2023-11-27T00:23:36.947Z,2.30
2023-11-27T00:26:05.397Z,2.20
2023-11-27T00:28:33.708Z,2.20
2023-11-27T00:31:01.156Z,2.20
2023-11-27T00:33:29.574Z,2.20
2023-11-27T00:36:00.679Z,2.10
2023-11-27T00:38:29.381Z,2.20
2023-11-27T00:40:57.839Z,2.20
2023-11-27T00:43:26.195Z,2.20
2023-11-27T00:45:55.117Z,2.10
2023-11-27T00:48:23.624Z,2.20
2023-11-27T00:50:51.967Z,2.10
2023-11-27T00:53:21.989Z,2.10
2023-11-27T00:55:50.361Z,1.90
2023-11-27T00:58:19.264Z,2.10
2023-11-27T01:00:47.706Z,2.20
2023-11-27T01:03:16.262Z,2.10
2023-11-27T01:05:45.001Z,2.10
2023-11-27T01:08:14.711Z,2.20
2023-11-27T01:10:44.659Z,2.10
2023-11-27T01:13:13.491Z,2.20
2023-11-27T01:15:43.500Z,2.20
2023-11-27T01:18:12.500Z,2.20
2023-11-27T01:20:41.805Z,2.20
2023-11-27T01:25:39.136Z,2.10
2023-11-27T01:28:09.908Z,2.10
2023-11-27T01:30:38.415Z,2.10
2023-11-27T01:33:07.367Z,2.10
2023-11-27T01:35:36.113Z,2.10
2023-11-27T01:38:04.533Z,2.10
2023-11-27T01:40:33.084Z,2.10
2023-11-27T01:43:01.917Z,2.10
2023-11-27T01:45:35.081Z,2.00
2023-11-27T01:48:03.543Z,2.00
2023-11-27T01:50:33.268Z,2.00
2023-11-27T01:53:02.404Z,2.00
2023-11-27T01:55:31.936Z,2.00
2023-11-27T01:58:02.272Z,2.00
2023-11-27T02:00:32.959Z,2.00
2023-11-27T02:03:03.074Z,1.90
2023-11-27T02:05:32.202Z,2.10
2023-11-27T02:08:01.051Z,2.10
2023-11-27T02:10:29.590Z,2.10
2023-11-27T02:12:58.185Z,2.10
2023-11-27T02:15:26.706Z,2.10
2023-11-27T02:17:56.896Z,2.20
2023-11-27T02:20:25.285Z,2.10
2023-11-27T02:22:53.760Z,2.00
2023-11-27T02:25:24.676Z,2.10
2023-11-27T02:27:53.128Z,2.10
2023-11-27T02:30:22.059Z,2.10
2023-11-27T02:32:51.354Z,2.10
2023-11-27T02:35:19.740Z,2.10
2023-11-27T02:37:48.108Z,2.10
2023-11-27T02:40:18.360Z,2.00
2023-11-27T02:42:48.228Z,2.00
2023-11-27T02:45:16.911Z,1.90
2023-11-27T02:47:45.455Z,2.00
2023-11-27T02:50:14.918Z,1.90
2023-11-27T02:52:43.949Z,1.90
2023-11-27T02:55:12.380Z,2.00
2023-11-27T02:57:41.100Z,1.90
2023-11-27T03:00:13.825Z,1.90
2023-11-27T03:02:42.874Z,1.90
2023-11-27T03:05:11.761Z,2.00
2023-11-27T03:07:41.874Z,2.00
2023-11-27T03:10:11.069Z,2.00
2023-11-27T03:12:40.223Z,1.90
2023-11-27T03:15:11.657Z,1.90
2023-11-27T03:20:16.023Z,1.90
2023-11-27T03:22:44.968Z,2.00
2023-11-27T03:25:13.605Z,1.90
2023-11-27T03:27:42.126Z,1.90
2023-11-27T03:30:13.503Z,1.90
2023-11-27T03:32:41.870Z,1.90
2023-11-27T03:35:11.040Z,1.90
2023-11-27T03:37:39.569Z,1.90
2023-11-27T03:40:09.945Z,1.80
2023-11-27T03:42:38.475Z,1.70
2023-11-27T03:45:08.470Z,1.60
2023-11-27T03:47:38.436Z,1.60
2023-11-27T03:50:08.449Z,1.50
2023-11-27T03:52:37.020Z,1.60
2023-11-27T03:55:06.451Z,1.50
2023-11-27T03:57:34.946Z,1.50
2023-11-27T04:00:04.742Z,1.50
2023-11-27T04:02:42.410Z,1.50
2023-11-27T04:05:12.225Z,1.50
2023-11-27T04:07:40.942Z,1.50
2023-11-27T04:10:10.152Z,1.50
2023-11-27T04:12:38.786Z,1.50
2023-11-27T04:15:08.839Z,1.50
2023-11-27T04:17:37.333Z,1.50
2023-11-27T04:20:13.045Z,1.50
2023-11-27T04:22:41.651Z,1.40
2023-11-27T04:25:11.030Z,1.50
2023-11-27T04:27:39.485Z,1.50
2023-11-27T04:30:09.407Z,1.50
2023-11-27T04:32:38.036Z,1.50
2023-11-27T04:35:10.085Z,1.60
2023-11-27T04:37:38.527Z,1.60
2023-11-27T04:40:11.786Z,1.60
2023-11-27T04:42:40.393Z,1.50
2023-11-27T04:45:10.106Z,1.60
2023-11-27T04:47:38.591Z,1.40
2023-11-27T04:50:09.964Z,1.30
2023-11-27T04:52:38.418Z,1.30
2023-11-27T04:55:08.801Z,1.30
2023-11-27T04:57:40.309Z,1.30
2023-11-27T05:00:10.754Z,1.40
2023-11-27T05:02:39.404Z,1.30
2023-11-27T05:05:09.454Z,1.30
2023-11-27T05:07:38.048Z,1.20
2023-11-27T05:10:08.683Z,1.20
2023-11-27T05:12:37.263Z,1.20
2023-11-27T05:15:07.556Z,1.20
2023-11-27T05:17:36.034Z,1.20
2023-11-27T05:20:05.859Z,1.20
2023-11-27T05:22:35.560Z,1.10
2023-11-27T05:27:33.251Z,1.00
2023-11-27T05:30:01.626Z,1.00
2023-11-27T05:32:29.963Z,1.10
2023-11-27T05:34:58.453Z,1.10
2023-11-27T05:37:28.225Z,1.00
2023-11-27T05:39:58.030Z,1.00
2023-11-27T05:42:28.421Z,1.00
2023-11-27T05:45:00.627Z,1.10
2023-11-27T05:47:29.612Z,1.10
2023-11-27T05:49:57.929Z,1.20
2023-11-27T05:52:28.249Z,1.20
2023-11-27T05:54:58.224Z,1.20
2023-11-27T05:57:26.709Z,1.30
2023-11-27T05:59:57.063Z,1.30
2023-11-27T06:04:54.436Z,1.40
2023-11-27T06:07:22.846Z,1.40
2023-11-27T06:12:24.807Z,1.50
2023-11-27T06:14:53.257Z,1.60
2023-11-27T06:17:21.706Z,1.60
2023-11-27T06:19:50.611Z,1.60
2023-11-27T06:24:47.701Z,1.70
2023-11-27T06:27:16.021Z,1.70
2023-11-27T06:29:46.003Z,1.50
2023-11-27T06:32:14.713Z,1.60
2023-11-27T06:34:43.478Z,1.40
2023-11-27T06:37:12.543Z,1.40
2023-11-27T06:39:41.038Z,1.30
2023-11-27T06:42:13.315Z,1.30
2023-11-27T06:44:41.822Z,1.30
2023-11-27T06:47:11.783Z,1.30
2023-11-27T06:49:40.497Z,1.20
2023-11-27T06:52:09.295Z,1.30
2023-11-27T06:54:37.684Z,1.30
2023-11-27T06:57:09.334Z,1.30
2023-11-27T06:59:38.820Z,1.30
2023-11-27T07:02:08.123Z,1.50
2023-11-27T07:04:40.517Z,1.50
2023-11-27T07:07:10.157Z,1.40
2023-11-27T07:09:38.734Z,1.40
2023-11-27T07:12:08.252Z,1.50
2023-11-27T07:14:36.693Z,1.60
2023-11-27T07:17:05.470Z,1.50
2023-11-27T07:19:33.988Z,1.50
2023-11-27T07:22:04.413Z,1.50
2023-11-27T07:24:32.880Z,1.50
2023-11-27T07:27:03.498Z,1.40
2023-11-27T07:29:32.322Z,1.50
2023-11-27T07:32:01.944Z,1.60
2023-11-27T07:34:30.365Z,1.70
2023-11-27T07:36:59.261Z,1.70
2023-11-27T07:39:30.434Z,1.70
2023-11-27T07:41:58.782Z,1.80
2023-11-27T07:44:27.316Z,1.90
2023-11-27T07:46:57.791Z,1.90
2023-11-27T07:49:26.927Z,2.00
2023-11-27T07:51:59.346Z,2.00
2023-11-27T07:54:30.436Z,2.00
2023-11-27T07:56:58.776Z,2.10
2023-11-27T07:59:27.704Z,2.10
2023-11-27T08:04:26.323Z,2.10
2023-11-27T08:06:54.738Z,2.10
2023-11-27T08:09:23.215Z,2.20
2023-11-27T08:11:53.055Z,2.20
2023-11-27T08:16:52.193Z,2.20
2023-11-27T08:19:22.223Z,2.20
2023-11-27T08:21:50.780Z,2.20
2023-11-27T08:24:19.213Z,2.30
2023-11-27T08:26:50.694Z,2.40
2023-11-27T08:29:21.261Z,2.40
2023-11-27T08:31:49.639Z,2.40
2023-11-27T08:34:18.256Z,2.40
2023-11-27T08:36:46.791Z,2.40
2023-11-27T08:39:15.562Z,2.40
2023-11-27T08:41:44.196Z,2.40
2023-11-27T08:44:12.797Z,2.40
2023-11-27T08:46:42.647Z,2.40
2023-11-27T08:49:12.153Z,2.40
2023-11-27T08:51:45.416Z,2.30
2023-11-27T08:54:14.388Z,2.40
2023-11-27T08:56:45.273Z,2.50
2023-11-27T08:59:13.956Z,2.50
2023-11-27T09:01:44.237Z,2.50
2023-11-27T09:04:13.082Z,2.60
2023-11-27T09:06:41.501Z,2.60
2023-11-27T09:09:10.865Z,2.70
2023-11-27T09:11:40.073Z,2.80
2023-11-27T09:14:08.545Z,2.80
2023-11-27T09:16:37.141Z,2.80
2023-11-27T09:19:08.411Z,2.80
2023-11-27T09:21:37.166Z,3.00
2023-11-27T09:24:07.945Z,3.00
2023-11-27T09:26:36.278Z,3.10
2023-11-27T09:29:06.048Z,3.10
2023-11-27T09:31:34.984Z,3.10
2023-11-27T09:34:03.468Z,3.10
2023-11-27T09:36:33.357Z,3.10
2023-11-27T09:39:01.886Z,3.00
2023-11-27T09:41:31.647Z,3.00
2023-11-27T09:44:01.159Z,3.00
2023-11-27T09:46:33.019Z,3.10
2023-11-27T09:49:10.106Z,3.20
2023-11-27T09:51:42.240Z,3.30
2023-11-27T09:54:13.339Z,3.30
2023-11-27T09:56:43.666Z,3.30
2023-11-27T09:59:13.921Z,3.40
2023-11-27T10:01:45.434Z,3.50
2023-11-27T10:04:14.205Z,3.60
2023-11-27T10:06:44.361Z,3.60
2023-11-27T10:09:15.292Z,3.70
2023-11-27T10:11:46.772Z,3.70
2023-11-27T10:14:35.677Z,3.60
2023-11-27T10:17:09.033Z,3.60
2023-11-27T10:19:42.984Z,3.60
2023-11-27T10:22:14.943Z,3.60
2023-11-27T10:24:45.749Z,3.60
2023-11-27T10:27:14.492Z,3.50
2023-11-27T10:29:41.880Z,3.60
2023-11-27T10:32:12.649Z,3.80
2023-11-27T10:34:41.971Z,3.90
2023-11-27T10:37:10.451Z,3.90
2023-11-27T10:39:42.524Z,3.90
2023-11-27T10:42:12.413Z,3.70
2023-11-27T10:44:42.151Z,3.70
2023-11-27T10:47:11.556Z,3.80
2023-11-27T10:49:42.225Z,3.70
2023-11-27T10:52:12.307Z,3.70
2023-11-27T10:54:44.561Z,3.70
2023-11-27T10:57:15.152Z,3.70
2023-11-27T10:59:45.495Z,3.80
2023-11-27T11:02:14.546Z,3.70
2023-11-27T11:04:53.487Z,3.80
2023-11-27T11:07:31.101Z,3.70
2023-11-27T11:10:06.678Z,3.80
2023-11-27T11:12:38.803Z,3.90
2023-11-27T11:15:14.642Z,4.00
2023-11-27T11:17:57.165Z,4.10
2023-11-27T11:20:43.310Z,4.30
2023-11-27T11:23:29.557Z,4.30
2023-11-27T11:26:41.208Z,4.20
2023-11-27T11:29:24.952Z,4.40
2023-11-27T11:32:04.452Z,4.50
2023-11-27T11:34:40.279Z,4.60
2023-11-27T11:37:13.689Z,4.60
2023-11-27T11:39:47.349Z,4.70
2023-11-27T11:42:19.774Z,4.80
2023-11-27T11:45:18.529Z,4.80
2023-11-27T11:47:53.922Z,4.90
2023-11-27T11:50:33.316Z,5.00
2023-11-27T11:53:11.648Z,4.80
2023-11-27T11:55:41.154Z,4.90
2023-11-27T11:58:30.253Z,4.70
2023-11-27T12:01:03.813Z,4.70
2023-11-27T12:03:34.779Z,4.70
2023-11-27T12:06:14.887Z,4.50
2023-11-27T12:08:46.540Z,4.50
2023-11-27T12:11:16.945Z,4.40
2023-11-27T12:13:46.755Z,4.50
2023-11-27T12:16:18.308Z,4.40
2023-11-27T12:18:52.814Z,4.40
2023-11-27T12:21:25.285Z,4.40
2023-11-27T12:23:55.364Z,4.40
2023-11-27T12:26:25.290Z,4.40
2023-11-27T12:28:57.007Z,4.30
2023-11-27T12:31:29.009Z,4.40
2023-11-27T12:33:58.574Z,4.40
2023-11-27T12:36:30.206Z,4.60
2023-11-27T12:38:59.997Z,4.60
2023-11-27T12:41:34.347Z,4.80
2023-11-27T12:44:17.650Z,4.90
2023-11-27T12:46:51.762Z,5.00
2023-11-27T12:49:22.621Z,5.10
2023-11-27T12:51:53.905Z,5.30
2023-11-27T12:54:24.535Z,5.40
2023-11-27T12:56:55.025Z,5.60
2023-11-27T12:59:25.511Z,5.50
2023-11-27T13:01:59.360Z,5.70
2023-11-27T13:04:32.030Z,5.60
2023-11-27T13:07:06.480Z,5.60
2023-11-27T13:12:16.581Z,5.70
2023-11-27T13:14:47.682Z,5.90
2023-11-27T13:17:20.877Z,6.20
2023-11-27T13:19:54.173Z,6.40
2023-11-27T13:22:24.340Z,6.50
2023-11-27T13:24:54.724Z,6.20
2023-11-27T13:27:24.605Z,5.80
2023-11-27T13:29:55.559Z,5.60
2023-11-27T13:32:25.937Z,5.60
2023-11-27T13:34:58.206Z,5.60
2023-11-27T13:37:30.491Z,5.30
2023-11-27T13:40:00.261Z,5.10
2023-11-27T13:42:32.165Z,5.00
2023-11-27T13:45:03.293Z,5.00
2023-11-27T13:47:34.207Z,5.00
2023-11-27T13:50:03.255Z,5.00
2023-11-27T13:55:03.553Z,4.80
2023-11-27T13:57:34.150Z,4.80
2023-11-27T14:00:20.642Z,4.80
2023-11-27T14:02:50.164Z,4.70
2023-11-27T14:05:23.129Z,4.60
2023-11-27T14:07:53.610Z,4.60
2023-11-27T14:10:28.153Z,4.60
2023-11-27T14:13:02.645Z,4.60
2023-11-27T14:15:40.919Z,4.50
2023-11-27T14:18:28.705Z,4.40
2023-11-27T14:21:23.393Z,4.40
2023-11-27T14:23:55.985Z,4.40
2023-11-27T14:26:35.802Z,4.40
2023-11-27T14:29:09.897Z,4.40
2023-11-27T14:31:40.440Z,4.30
2023-11-27T14:34:13.130Z,4.30
2023-11-27T14:36:42.045Z,4.10
2023-11-27T14:39:17.383Z,3.90
2023-11-27T14:41:48.789Z,3.80
2023-11-27T14:46:52.807Z,3.50
2023-11-27T14:49:22.233Z,3.50
2023-11-27T14:51:51.192Z,3.40
2023-11-27T14:54:21.193Z,3.10
2023-11-27T14:56:50.171Z,3.00
2023-11-27T15:01:48.816Z,3.00
2023-11-27T15:04:17.334Z,2.90
2023-11-27T15:06:47.548Z,2.80
2023-11-27T15:09:22.660Z,2.80
2023-11-27T15:11:53.131Z,2.70
2023-11-27T15:14:23.193Z,2.70
2023-11-27T15:16:54.764Z,2.70
2023-11-27T15:19:26.172Z,2.60
2023-11-27T15:21:57.461Z,2.60
2023-11-27T15:24:26.225Z,2.60
2023-11-27T15:26:55.347Z,2.60
2023-11-27T15:29:29.606Z,2.60
2023-11-27T15:31:59.917Z,2.50
2023-11-27T15:34:30.248Z,2.50
2023-11-27T15:36:58.792Z,2.50
2023-11-27T15:39:30.378Z,2.50
2023-11-27T15:41:59.407Z,2.40
2023-11-27T15:44:27.836Z,2.50
2023-11-27T15:46:56.713Z,2.40
2023-11-27T15:49:26.651Z,2.30
2023-11-27T15:51:55.533Z,2.30
2023-11-27T15:54:23.889Z,2.40
2023-11-27T15:56:52.839Z,2.30
2023-11-27T15:59:21.640Z,2.20
2023-11-27T16:01:50.550Z,2.20
2023-11-27T16:04:21.088Z,2.20
2023-11-27T16:06:52.984Z,2.10
2023-11-27T16:09:22.279Z,2.10
2023-11-27T16:11:50.774Z,2.00
2023-11-27T16:14:19.487Z,1.90
2023-11-27T16:16:52.168Z,2.00
2023-11-27T16:19:22.120Z,1.90
2023-11-27T16:21:52.368Z,2.00
2023-11-27T16:24:21.719Z,2.00
2023-11-27T16:26:52.649Z,1.90
2023-11-27T16:29:21.634Z,1.80
2023-11-27T16:31:50.204Z,1.80
2023-11-27T16:34:19.907Z,1.60
2023-11-27T16:36:48.656Z,1.50
2023-11-27T16:39:18.711Z,1.40
2023-11-27T16:41:47.334Z,1.40
2023-11-27T16:44:15.889Z,1.40
2023-11-27T16:46:44.655Z,1.50
2023-11-27T16:49:13.824Z,1.30
2023-11-27T16:51:42.853Z,1.30
2023-11-27T16:54:12.001Z,1.20
2023-11-27T16:56:41.818Z,1.10
2023-11-27T16:59:13.004Z,1.00
2023-11-27T17:01:42.233Z,1.10
2023-11-27T17:04:13.240Z,1.00
2023-11-27T17:06:43.971Z,1.00
2023-11-27T17:09:15.656Z,0.90
2023-11-27T17:11:45.804Z,0.90
2023-11-27T17:14:14.195Z,0.90
2023-11-27T17:16:42.640Z,0.80
2023-11-27T17:19:11.147Z,0.80
2023-11-27T17:21:39.623Z,0.70
2023-11-27T17:24:08.532Z,0.70
2023-11-27T17:26:37.018Z,0.70
2023-11-27T17:29:06.825Z,0.70
2023-11-27T17:31:35.307Z,0.70
2023-11-27T17:36:32.472Z,0.80
2023-11-27T17:39:00.842Z,0.70
2023-11-27T17:41:29.763Z,0.70
2023-11-27T17:43:58.218Z,0.60
2023-11-27T17:46:29.530Z,0.60
2023-11-27T17:48:58.358Z,2.10
2023-11-27T17:51:26.815Z,0.70
2023-11-27T17:56:28.390Z,0.70
2023-11-27T17:59:03.556Z,0.70
2023-11-27T18:01:33.633Z,0.70
2023-11-27T18:04:02.871Z,0.70
2023-11-27T18:06:31.486Z,0.40
2023-11-27T18:09:00.466Z,0.60
2023-11-27T18:11:28.847Z,0.70
2023-11-27T18:13:57.435Z,0.60
2023-11-27T18:16:26.239Z,0.60
2023-11-27T18:18:56.971Z,0.70
2023-11-27T18:21:25.949Z,0.60
2023-11-27T18:23:54.880Z,0.60
2023-11-27T18:26:23.712Z,0.70
2023-11-27T18:28:52.298Z,0.70
2023-11-27T18:31:20.792Z,0.70
2023-11-27T18:33:49.408Z,0.70
2023-11-27T18:36:19.556Z,0.70
2023-11-27T18:38:48.030Z,0.70
2023-11-27T18:41:18.796Z,0.70
2023-11-27T18:43:47.397Z,0.70
2023-11-27T18:46:16.499Z,0.70
2023-11-27T18:48:45.733Z,0.70
2023-11-27T18:51:22.947Z,0.70
2023-11-27T18:53:51.883Z,0.70
2023-11-27T18:56:20.816Z,0.70
2023-11-27T18:58:51.012Z,0.60
2023-11-27T19:01:20.887Z,0.60
2023-11-27T19:03:53.940Z,0.70
2023-11-27T19:06:24.424Z,0.60
2023-11-27T19:08:52.877Z,0.60
2023-11-27T19:11:21.633Z,0.60
2023-11-27T19:13:50.273Z,0.60
2023-11-27T19:16:19.428Z,0.60
2023-11-27T19:21:21.274Z,0.60
2023-11-27T19:23:51.258Z,0.70
2023-11-27T19:26:20.094Z,0.70
2023-11-27T19:28:49.650Z,0.60
2023-11-27T19:31:18.152Z,0.70
2023-11-27T19:33:47.639Z,0.60
2023-11-27T19:36:21.596Z,0.60
2023-11-27T19:38:51.507Z,0.60
2023-11-27T19:41:19.977Z,0.60
2023-11-27T19:43:48.409Z,0.60
2023-11-27T19:46:18.383Z,0.60
2023-11-27T19:48:47.296Z,0.60
2023-11-27T19:51:16.270Z,0.60
2023-11-27T19:53:44.739Z,0.60
2023-11-27T19:56:15.339Z,0.60
2023-11-27T19:58:44.009Z,0.60
2023-11-27T20:01:13.440Z,0.60
2023-11-27T20:03:42.004Z,0.60
2023-11-27T20:06:10.960Z,0.60
2023-11-27T20:08:40.298Z,0.60
2023-11-27T20:11:11.346Z,0.70
2023-11-27T20:13:44.404Z,0.60
2023-11-27T20:16:13.591Z,0.60
2023-11-27T20:18:42.047Z,0.60
2023-11-27T20:21:10.477Z,0.70
2023-11-27T20:23:40.155Z,0.70
2023-11-27T20:26:08.627Z,0.60
2023-11-27T20:28:37.254Z,0.70
2023-11-27T20:31:07.093Z,0.60
2023-11-27T20:33:36.795Z,0.60
2023-11-27T20:36:05.826Z,0.40
2023-11-27T20:41:04.400Z,0.50
2023-11-27T20:43:34.300Z,0.60
2023-11-27T20:46:03.432Z,0.60
2023-11-27T20:48:34.009Z,0.50
2023-11-27T20:51:03.849Z,0.60
2023-11-27T20:53:35.919Z,0.60
2023-11-27T20:56:04.510Z,0.50
2023-11-27T20:58:33.143Z,0.60
2023-11-27T21:01:02.740Z,0.60
2023-11-27T21:03:33.076Z,2.60
2023-11-27T21:06:01.834Z,0.60
2023-11-27T21:08:29.287Z,0.60
2023-11-27T21:10:57.731Z,0.60
2023-11-27T21:13:26.364Z,0.50
2023-11-27T21:15:54.840Z,0.60
2023-11-27T21:18:23.633Z,0.60
2023-11-27T21:20:53.471Z,0.60
2023-11-27T21:23:23.586Z,0.60
2023-11-27T21:25:52.061Z,0.60
2023-11-27T21:28:21.887Z,0.60
2023-11-27T21:30:50.704Z,0.60
2023-11-27T21:33:19.269Z,0.60
2023-11-27T21:35:47.970Z,0.50
2023-11-27T21:38:18.122Z,0.60
2023-11-27T21:40:46.908Z,0.60
2023-11-27T21:43:15.470Z,0.40
2023-11-27T21:45:44.336Z,0.60
2023-11-27T21:48:12.911Z,0.60
2023-11-27T21:50:41.629Z,0.60
2023-11-27T21:53:10.596Z,0.60
2023-11-27T21:55:41.095Z,0.50
2023-11-27T21:58:09.717Z,0.50
2023-11-27T22:00:38.097Z,0.50
2023-11-27T22:03:07.138Z,0.60
2023-11-27T22:05:35.580Z,0.50
2023-11-27T22:08:04.157Z,0.60
2023-11-27T22:10:34.683Z,0.60
2023-11-27T22:13:05.136Z,0.60
2023-11-27T22:15:33.798Z,0.60
2023-11-27T22:18:02.213Z,0.60
2023-11-27T22:20:30.824Z,0.60
2023-11-27T22:27:57.246Z,0.60
2023-11-27T22:30:27.546Z,0.60
2023-11-27T22:32:56.577Z,0.50
2023-11-27T22:35:25.064Z,0.60
2023-11-27T22:37:53.635Z,0.60
2023-11-27T22:40:23.356Z,0.50
2023-11-27T22:42:52.043Z,0.50
2023-11-27T22:45:20.878Z,0.60
2023-11-27T22:47:50.744Z,0.60
2023-11-27T22:50:19.482Z,0.60
2023-11-27T22:52:47.933Z,0.50
2023-11-27T22:55:16.594Z,0.60
2023-11-27T22:57:48.473Z,0.60
2023-11-27T23:02:55.444Z,0.60
2023-11-27T23:05:24.769Z,0.60
2023-11-27T23:07:53.542Z,0.60
2023-11-27T23:10:22.477Z,0.60
2023-11-27T23:12:50.992Z,0.50
2023-11-27T23:15:19.414Z,0.50
2023-11-27T23:17:48.925Z,0.60
2023-11-27T23:20:18.999Z,0.50
2023-11-27T23:22:47.513Z,0.60
2023-11-27T23:25:16.112Z,0.60
2023-11-27T23:27:44.497Z,0.50
2023-11-27T23:30:14.240Z,0.60
2023-11-27T23:32:42.679Z,0.60
2023-11-27T23:35:11.342Z,0.70
2023-11-27T23:37:41.144Z,0.70
2023-11-27T23:40:11.552Z,0.60
2023-11-27T23:42:39.977Z,0.70
2023-11-27T23:45:09.689Z,0.70
2023-11-27T23:47:39.496Z,0.70
2023-11-27T23:50:08.773Z,0.70
2023-11-27T23:52:37.864Z,0.80
2023-11-27T23:55:09.756Z,0.80
2023-11-27T23:57:38.289Z,0.80
